Snapfinger, Georgia
Current Conditions -  °F | °C
As of 3:53 PM on Tuesday 27 Jan 2015 (Local Time) from KPDK Reporting Station
Scattered Clouds Scattered Clouds  
Wind Chill: 38°   Ceiling: Unl
Heat Index: 45°   Visibility: 10mi
Dew Point: 30°   Wind: 15mph
Humidity: 56%   Direction: 340°NNW
Pressure: 29.98"   Gusts: 23mph
Location:  33.7251°N, 84.205°W
Report Text: KPDK 272053Z 34013G20KT 10SM SCT034 07/M01 A2998 RMK AO2 SLP165 T00721011 53011
Loading
Personal Weather Stations






























Interactive Weather Map New forecast layout! Learn more

10-Day Weather Forecast

Advertisements
Track Severe Weather on mobile